sensor_id;sensor_type;location;lat;lon;timestamp;P1;durP1;ratioP1;P2;durP2;ratioP2
54408;SDS011;40315;48.620;9.828;2024-01-15T02:03:18;33.50;;;11.90;;
54408;SDS011;40315;48.620;9.828;2024-01-15T02:05:45;29.80;;;12.70;;
54408;SDS011;40315;48.620;9.828;2024-01-15T02:08:14;31.13;;;13.07;;
54408;SDS011;40315;48.620;9.828;2024-01-15T02:10:41;27.90;;;12.90;;
54408;SDS011;40315;48.620;9.828;2024-01-15T02:13:08;28.03;;;12.93;;
54408;SDS011;40315;48.620;9.828;2024-01-15T02:15:35;28.73;;;13.27;;
54408;SDS011;40315;48.620;9.828;2024-01-15T02:18:03;30.43;;;11.67;;
54408;SDS011;40315;48.620;9.828;2024-01-15T02:20:34;30.40;;;11.97;;
54408;SDS011;40315;48.620;9.828;2024-01-15T02:23:07;29.63;;;12.33;;
54408;SDS011;40315;48.620;9.828;2024-01-15T02:25:35;28.30;;;11.63;;
54408;SDS011;40315;48.620;9.828;2024-01-15T02:28:03;25.43;;;10.63;;
54408;SDS011;40315;48.620;9.828;2024-01-15T02:30:31;25.63;;;11.40;;
54408;SDS011;40315;48.620;9.828;2024-01-15T02:32:58;25.63;;;10.47;;
54408;SDS011;40315;48.620;9.828;2024-01-15T02:35:25;25.27;;;10.63;;
54408;SDS011;40315;48.620;9.828;2024-01-15T02:37:52;23.47;;;10.03;;
54408;SDS011;40315;48.620;9.828;2024-01-15T02:40:20;25.57;;;11.10;;
54408;SDS011;40315;48.620;9.828;2024-01-15T02:42:47;22.20;;;9.73;;
54408;SDS011;40315;48.620;9.828;2024-01-15T02:45:14;18.90;;;9.60;;
54408;SDS011;40315;48.620;9.828;2024-01-15T02:47:41;19.83;;;8.13;;
54408;SDS011;40315;48.620;9.828;2024-01-15T02:50:10;24.17;;;9.97;;
54408;SDS011;40315;48.620;9.828;2024-01-15T02:52:39;21.07;;;8.70;;
54408;SDS011;40315;48.620;9.828;2024-01-15T02:55:07;17.83;;;8.70;;
54408;SDS011;40315;48.620;9.828;2024-01-15T02:57:36;17.67;;;7.53;;
54408;SDS011;40315;48.620;9.828;2024-01-15T03:00:03;19.07;;;8.40;;
54408;SDS011;40315;48.620;9.828;2024-01-15T03:02:36;18.77;;;8.27;;
54408;SDS011;40315;48.620;9.828;2024-01-15T03:05:05;16.80;;;7.90;;
54408;SDS011;40315;48.620;9.828;2024-01-15T03:07:32;21.97;;;8.40;;
54408;SDS011;40315;48.620;9.828;2024-01-15T03:09:59;18.57;;;7.77;;
54408;SDS011;40315;48.620;9.828;2024-01-15T03:12:26;21.20;;;8.20;;
54408;SDS011;40315;48.620;9.828;2024-01-15T03:14:57;16.50;;;8.27;;
54408;SDS011;40315;48.620;9.828;2024-01-15T03:17:24;16.83;;;8.23;;
54408;SDS011;40315;48.620;9.828;2024-01-15T03:19:51;17.37;;;7.73;;
54408;SDS011;40315;48.620;9.828;2024-01-15T03:22:18;17.70;;;7.73;;
54408;SDS011;40315;48.620;9.828;2024-01-15T03:24:48;15.50;;;6.73;;
54408;SDS011;40315;48.620;9.828;2024-01-15T03:27:15;15.90;;;6.97;;
54408;SDS011;40315;48.620;9.828;2024-01-15T03:29:42;15.60;;;7.07;;
54408;SDS011;40315;48.620;9.828;2024-01-15T03:32:10;12.30;;;5.37;;
54408;SDS011;40315;48.620;9.828;2024-01-15T03:34:37;12.03;;;5.27;;
54408;SDS011;40315;48.620;9.828;2024-01-15T03:37:04;10.40;;;4.93;;
54408;SDS011;40315;48.620;9.828;2024-01-15T03:39:31;10.10;;;5.07;;
54408;SDS011;40315;48.620;9.828;2024-01-15T03:41:58;10.20;;;4.93;;
54408;SDS011;40315;48.620;9.828;2024-01-15T03:44:24;8.60;;;4.47;;
54408;SDS011;40315;48.620;9.828;2024-01-15T03:46:54;8.03;;;4.20;;
54408;SDS011;40315;48.620;9.828;2024-01-15T03:49:22;8.03;;;4.17;;
54408;SDS011;40315;48.620;9.828;2024-01-15T03:51:51;6.40;;;3.33;;
54408;SDS011;40315;48.620;9.828;2024-01-15T03:54:18;7.03;;;3.77;;
54408;SDS011;40315;48.620;9.828;2024-01-15T03:56:45;8.93;;;4.17;;
54408;SDS011;40315;48.620;9.828;2024-01-15T03:59:12;10.43;;;4.07;;
54408;SDS011;40315;48.620;9.828;2024-01-15T04:01:39;6.77;;;3.63;;
54408;SDS011;40315;48.620;9.828;2024-01-15T04:04:06;8.70;;;4.10;;
54408;SDS011;40315;48.620;9.828;2024-01-15T04:06:34;7.37;;;3.90;;
54408;SDS011;40315;48.620;9.828;2024-01-15T04:09:01;6.23;;;3.23;;
54408;SDS011;40315;48.620;9.828;2024-01-15T04:11:28;5.57;;;3.63;;
54408;SDS011;40315;48.620;9.828;2024-01-15T04:13:57;8.57;;;3.90;;
54408;SDS011;40315;48.620;9.828;2024-01-15T04:16:23;7.97;;;3.60;;
54408;SDS011;40315;48.620;9.828;2024-01-15T04:18:50;7.53;;;3.70;;
54408;SDS011;40315;48.620;9.828;2024-01-15T04:21:17;7.40;;;3.23;;
54408;SDS011;40315;48.620;9.828;2024-01-15T04:23:46;10.40;;;3.90;;
54408;SDS011;40315;48.620;9.828;2024-01-15T04:26:13;9.63;;;3.70;;
54408;SDS011;40315;48.620;9.828;2024-01-15T04:28:39;5.73;;;2.87;;
54408;SDS011;40315;48.620;9.828;2024-01-15T04:31:09;5.20;;;2.67;;
54408;SDS011;40315;48.620;9.828;2024-01-15T04:33:36;4.93;;;2.80;;
54408;SDS011;40315;48.620;9.828;2024-01-15T04:36:03;5.43;;;3.20;;
54408;SDS011;40315;48.620;9.828;2024-01-15T04:38:31;6.83;;;3.10;;
54408;SDS011;40315;48.620;9.828;2024-01-15T04:41:02;5.20;;;2.90;;
54408;SDS011;40315;48.620;9.828;2024-01-15T04:43:29;5.23;;;2.80;;
54408;SDS011;40315;48.620;9.828;2024-01-15T04:45:56;5.67;;;2.90;;
54408;SDS011;40315;48.620;9.828;2024-01-15T04:48:23;6.50;;;2.73;;
54408;SDS011;40315;48.620;9.828;2024-01-15T04:50:50;5.33;;;2.73;;
54408;SDS011;40315;48.620;9.828;2024-01-15T04:53:19;5.67;;;2.60;;
54408;SDS011;40315;48.620;9.828;2024-01-15T04:55:48;6.43;;;2.47;;
54408;SDS011;40315;48.620;9.828;2024-01-15T04:58:18;4.63;;;2.50;;
54408;SDS011;40315;48.620;9.828;2024-01-15T05:00:45;5.37;;;2.20;;
54408;SDS011;40315;48.620;9.828;2024-01-15T05:03:12;4.50;;;2.40;;
54408;SDS011;40315;48.620;9.828;2024-01-15T05:05:41;6.00;;;2.40;;
54408;SDS011;40315;48.620;9.828;2024-01-15T05:08:09;3.93;;;2.50;;
54408;SDS011;40315;48.620;9.828;2024-01-15T05:10:36;5.43;;;2.13;;
54408;SDS011;40315;48.620;9.828;2024-01-15T05:13:03;4.90;;;2.20;;
54408;SDS011;40315;48.620;9.828;2024-01-15T05:15:32;5.43;;;2.33;;
54408;SDS011;40315;48.620;9.828;2024-01-15T05:17:59;3.97;;;2.30;;
54408;SDS011;40315;48.620;9.828;2024-01-15T05:20:28;4.67;;;2.23;;
54408;SDS011;40315;48.620;9.828;2024-01-15T05:22:55;3.87;;;2.20;;
54408;SDS011;40315;48.620;9.828;2024-01-15T05:25:22;3.63;;;2.13;;
54408;SDS011;40315;48.620;9.828;2024-01-15T05:27:49;4.10;;;2.47;;
54408;SDS011;40315;48.620;9.828;2024-01-15T05:30:16;2.93;;;2.20;;
54408;SDS011;40315;48.620;9.828;2024-01-15T05:32:47;4.10;;;2.27;;
54408;SDS011;40315;48.620;9.828;2024-01-15T05:35:16;3.30;;;2.37;;
54408;SDS011;40315;48.620;9.828;2024-01-15T05:37:45;6.87;;;3.30;;
54408;SDS011;40315;48.620;9.828;2024-01-15T05:40:12;4.53;;;2.47;;
54408;SDS011;40315;48.620;9.828;2024-01-15T05:42:40;7.57;;;4.03;;
54408;SDS011;40315;48.620;9.828;2024-01-15T05:45:08;9.17;;;4.87;;
54408;SDS011;40315;48.620;9.828;2024-01-15T05:47:37;12.20;;;6.20;;
54408;SDS011;40315;48.620;9.828;2024-01-15T05:50:08;10.67;;;5.07;;
54408;SDS011;40315;48.620;9.828;2024-01-15T05:52:35;6.97;;;3.87;;
54408;SDS011;40315;48.620;9.828;2024-01-15T05:55:02;6.27;;;3.10;;
54408;SDS011;40315;48.620;9.828;2024-01-15T05:57:33;8.23;;;3.97;;
54408;SDS011;40315;48.620;9.828;2024-01-15T06:00:00;5.37;;;3.10;;
54408;SDS011;40315;48.620;9.828;2024-01-15T06:02:31;4.13;;;2.40;;
54408;SDS011;40315;48.620;9.828;2024-01-15T06:04:58;5.27;;;2.97;;
54408;SDS011;40315;48.620;9.828;2024-01-15T06:07:26;7.63;;;3.50;;
54408;SDS011;40315;48.620;9.828;2024-01-15T06:09:53;7.20;;;2.97;;
54408;SDS011;40315;48.620;9.828;2024-01-15T06:12:22;6.77;;;3.30;;
54408;SDS011;40315;48.620;9.828;2024-01-15T06:14:49;5.97;;;2.73;;
54408;SDS011;40315;48.620;9.828;2024-01-15T06:17:18;5.17;;;2.50;;
54408;SDS011;40315;48.620;9.828;2024-01-15T06:19:45;8.60;;;3.83;;
54408;SDS011;40315;48.620;9.828;2024-01-15T06:22:12;6.60;;;3.90;;
54408;SDS011;40315;48.620;9.828;2024-01-15T06:24:40;7.93;;;3.90;;
54408;SDS011;40315;48.620;9.828;2024-01-15T06:27:10;9.10;;;4.00;;
54408;SDS011;40315;48.620;9.828;2024-01-15T06:29:37;9.37;;;4.93;;
54408;SDS011;40315;48.620;9.828;2024-01-15T06:32:04;6.37;;;2.93;;
54408;SDS011;40315;48.620;9.828;2024-01-15T06:34:31;6.50;;;2.70;;
54408;SDS011;40315;48.620;9.828;2024-01-15T06:36:58;7.83;;;3.40;;
54408;SDS011;40315;48.620;9.828;2024-01-15T06:39:25;10.60;;;5.17;;
54408;SDS011;40315;48.620;9.828;2024-01-15T06:41:56;10.20;;;4.23;;
54408;SDS011;40315;48.620;9.828;2024-01-15T06:44:23;4.27;;;2.57;;
54408;SDS011;40315;48.620;9.828;2024-01-15T06:46:52;5.73;;;2.77;;
54408;SDS011;40315;48.620;9.828;2024-01-15T06:49:22;6.70;;;3.67;;
54408;SDS011;40315;48.620;9.828;2024-01-15T06:51:51;6.03;;;3.57;;
54408;SDS011;40315;48.620;9.828;2024-01-15T06:54:18;5.30;;;2.70;;
54408;SDS011;40315;48.620;9.828;2024-01-15T06:56:45;5.60;;;3.17;;
54408;SDS011;40315;48.620;9.828;2024-01-15T06:59:16;5.57;;;3.07;;
54408;SDS011;40315;48.620;9.828;2024-01-15T07:01:43;4.97;;;2.97;;
54408;SDS011;40315;48.620;9.828;2024-01-15T07:04:09;4.17;;;2.40;;
54408;SDS011;40315;48.620;9.828;2024-01-15T07:06:36;5.03;;;2.37;;
54408;SDS011;40315;48.620;9.828;2024-01-15T07:09:04;6.33;;;2.20;;
54408;SDS011;40315;48.620;9.828;2024-01-15T07:11:33;4.27;;;2.47;;
54408;SDS011;40315;48.620;9.828;2024-01-15T07:14:00;4.30;;;2.60;;
54408;SDS011;40315;48.620;9.828;2024-01-15T07:16:30;5.30;;;2.47;;
54408;SDS011;40315;48.620;9.828;2024-01-15T07:18:59;4.70;;;2.20;;
54408;SDS011;40315;48.620;9.828;2024-01-15T07:21:28;8.83;;;3.33;;
54408;SDS011;40315;48.620;9.828;2024-01-15T07:23:56;4.03;;;2.70;;
54408;SDS011;40315;48.620;9.828;2024-01-15T07:26:23;4.87;;;2.67;;
54408;SDS011;40315;48.620;9.828;2024-01-15T07:28:50;5.63;;;3.07;;
54408;SDS011;40315;48.620;9.828;2024-01-15T07:31:17;5.40;;;2.97;;
54408;SDS011;40315;48.620;9.828;2024-01-15T07:33:45;6.50;;;2.90;;
54408;SDS011;40315;48.620;9.828;2024-01-15T07:36:12;6.23;;;3.37;;
54408;SDS011;40315;48.620;9.828;2024-01-15T07:38:39;4.80;;;2.67;;
54408;SDS011;40315;48.620;9.828;2024-01-15T07:41:08;4.93;;;2.80;;
54408;SDS011;40315;48.620;9.828;2024-01-15T07:43:35;4.40;;;2.80;;
54408;SDS011;40315;48.620;9.828;2024-01-15T07:46:02;6.03;;;2.97;;
54408;SDS011;40315;48.620;9.828;2024-01-15T07:48:29;7.47;;;3.20;;
54408;SDS011;40315;48.620;9.828;2024-01-15T07:50:58;4.00;;;3.00;;
54408;SDS011;40315;48.620;9.828;2024-01-15T07:53:25;4.70;;;2.63;;
54408;SDS011;40315;48.620;9.828;2024-01-15T07:55:53;5.20;;;2.93;;
54408;SDS011;40315;48.620;9.828;2024-01-15T07:58:20;4.73;;;2.67;;
54408;SDS011;40315;48.620;9.828;2024-01-15T08:00:49;7.23;;;2.93;;
54408;SDS011;40315;48.620;9.828;2024-01-15T08:03:17;5.77;;;3.00;;
54408;SDS011;40315;48.620;9.828;2024-01-15T08:05:43;5.73;;;2.67;;
54408;SDS011;40315;48.620;9.828;2024-01-15T08:08:13;4.63;;;3.07;;
54408;SDS011;40315;48.620;9.828;2024-01-15T08:10:40;5.87;;;2.87;;
54408;SDS011;40315;48.620;9.828;2024-01-15T08:13:07;4.50;;;2.67;;
54408;SDS011;40315;48.620;9.828;2024-01-15T08:15:34;5.90;;;2.77;;
54408;SDS011;40315;48.620;9.828;2024-01-15T08:18:03;6.13;;;3.03;;
54408;SDS011;40315;48.620;9.828;2024-01-15T08:20:31;8.80;;;3.00;;
54408;SDS011;40315;48.620;9.828;2024-01-15T08:22:58;5.10;;;2.77;;
54408;SDS011;40315;48.620;9.828;2024-01-15T08:25:26;6.83;;;2.90;;
54408;SDS011;40315;48.620;9.828;2024-01-15T08:27:53;5.13;;;2.63;;
54408;SDS011;40315;48.620;9.828;2024-01-15T08:30:20;5.47;;;2.37;;
54408;SDS011;40315;48.620;9.828;2024-01-15T08:32:50;6.83;;;2.63;;
54408;SDS011;40315;48.620;9.828;2024-01-15T08:35:16;4.20;;;2.33;;
54408;SDS011;40315;48.620;9.828;2024-01-15T08:37:47;5.63;;;3.53;;
54408;SDS011;40315;48.620;9.828;2024-01-15T08:40:17;7.37;;;3.03;;
54408;SDS011;40315;48.620;9.828;2024-01-15T08:42:46;5.70;;;3.03;;
54408;SDS011;40315;48.620;9.828;2024-01-15T08:45:13;5.80;;;3.37;;
54408;SDS011;40315;48.620;9.828;2024-01-15T08:47:40;5.97;;;3.40;;
54408;SDS011;40315;48.620;9.828;2024-01-15T08:50:07;7.43;;;4.10;;
54408;SDS011;40315;48.620;9.828;2024-01-15T08:52:35;7.63;;;4.43;;
54408;SDS011;40315;48.620;9.828;2024-01-15T08:55:02;9.20;;;4.73;;
54408;SDS011;40315;48.620;9.828;2024-01-15T08:57:32;11.10;;;4.90;;
54408;SDS011;40315;48.620;9.828;2024-01-15T09:00:00;9.57;;;4.73;;
54408;SDS011;40315;48.620;9.828;2024-01-15T09:02:28;7.07;;;4.40;;
54408;SDS011;40315;48.620;9.828;2024-01-15T09:04:58;8.77;;;5.20;;
54408;SDS011;40315;48.620;9.828;2024-01-15T09:07:25;13.10;;;5.77;;
54408;SDS011;40315;48.620;9.828;2024-01-15T09:09:52;9.47;;;5.03;;
54408;SDS011;40315;48.620;9.828;2024-01-15T09:12:19;9.10;;;4.77;;
54408;SDS011;40315;48.620;9.828;2024-01-15T09:14:49;8.73;;;4.53;;
54408;SDS011;40315;48.620;9.828;2024-01-15T09:17:18;8.20;;;4.50;;
54408;SDS011;40315;48.620;9.828;2024-01-15T09:19:45;10.87;;;4.77;;
54408;SDS011;40315;48.620;9.828;2024-01-15T09:22:12;10.53;;;4.43;;
54408;SDS011;40315;48.620;9.828;2024-01-15T09:24:40;7.67;;;4.60;;
54408;SDS011;40315;48.620;9.828;2024-01-15T09:27:07;8.37;;;4.40;;
54408;SDS011;40315;48.620;9.828;2024-01-15T09:29:34;7.67;;;3.97;;
54408;SDS011;40315;48.620;9.828;2024-01-15T09:32:04;9.17;;;4.60;;
54408;SDS011;40315;48.620;9.828;2024-01-15T09:34:34;7.40;;;4.33;;
54408;SDS011;40315;48.620;9.828;2024-01-15T09:37:03;8.63;;;4.00;;
54408;SDS011;40315;48.620;9.828;2024-01-15T09:39:30;9.00;;;4.53;;
54408;SDS011;40315;48.620;9.828;2024-01-15T09:41:57;11.47;;;4.93;;
54408;SDS011;40315;48.620;9.828;2024-01-15T09:44:25;9.87;;;4.20;;
54408;SDS011;40315;48.620;9.828;2024-01-15T09:46:53;9.47;;;4.43;;
54408;SDS011;40315;48.620;9.828;2024-01-15T09:49:22;6.97;;;4.00;;
54408;SDS011;40315;48.620;9.828;2024-01-15T09:51:50;7.50;;;2.93;;
54408;SDS011;40315;48.620;9.828;2024-01-15T09:54:17;8.37;;;3.67;;
54408;SDS011;40315;48.620;9.828;2024-01-15T09:56:45;7.70;;;3.63;;
54408;SDS011;40315;48.620;9.828;2024-01-15T09:59:13;5.70;;;2.97;;
54408;SDS011;40315;48.620;9.828;2024-01-15T10:01:42;7.30;;;2.30;;
54408;SDS011;40315;48.620;9.828;2024-01-15T10:04:10;7.43;;;4.30;;
54408;SDS011;40315;48.620;9.828;2024-01-15T10:06:37;3.00;;;2.03;;
54408;SDS011;40315;48.620;9.828;2024-01-15T10:09:07;4.70;;;2.93;;
54408;SDS011;40315;48.620;9.828;2024-01-15T10:11:36;3.30;;;2.07;;
54408;SDS011;40315;48.620;9.828;2024-01-15T10:14:03;3.33;;;2.60;;
54408;SDS011;40315;48.620;9.828;2024-01-15T10:16:33;5.57;;;2.57;;
54408;SDS011;40315;48.620;9.828;2024-01-15T10:19:00;3.20;;;2.90;;
54408;SDS011;40315;48.620;9.828;2024-01-15T10:21:31;2.20;;;2.00;;
54408;SDS011;40315;48.620;9.828;2024-01-15T10:24:02;3.93;;;2.30;;
54408;SDS011;40315;48.620;9.828;2024-01-15T10:26:31;24.30;;;13.67;;
54408;SDS011;40315;48.620;9.828;2024-01-15T10:29:01;3.80;;;2.20;;
54408;SDS011;40315;48.620;9.828;2024-01-15T10:31:28;3.37;;;1.80;;
54408;SDS011;40315;48.620;9.828;2024-01-15T10:33:55;2.20;;;1.20;;
54408;SDS011;40315;48.620;9.828;2024-01-15T10:36:38;2.47;;;1.40;;
54408;SDS011;40315;48.620;9.828;2024-01-15T10:39:06;4.07;;;1.87;;
54408;SDS011;40315;48.620;9.828;2024-01-15T10:41:37;2.90;;;1.60;;
54408;SDS011;40315;48.620;9.828;2024-01-15T10:44:04;1.90;;;1.40;;
54408;SDS011;40315;48.620;9.828;2024-01-15T10:46:31;2.53;;;1.20;;
54408;SDS011;40315;48.620;9.828;2024-01-15T10:49:00;3.47;;;1.23;;
54408;SDS011;40315;48.620;9.828;2024-01-15T10:51:27;2.73;;;1.53;;
54408;SDS011;40315;48.620;9.828;2024-01-15T10:53:55;3.53;;;1.20;;
54408;SDS011;40315;48.620;9.828;2024-01-15T10:56:23;2.87;;;1.30;;
54408;SDS011;40315;48.620;9.828;2024-01-15T10:58:53;3.07;;;1.60;;
54408;SDS011;40315;48.620;9.828;2024-01-15T11:01:21;3.00;;;1.77;;
54408;SDS011;40315;48.620;9.828;2024-01-15T11:03:51;2.00;;;1.53;;
54408;SDS011;40315;48.620;9.828;2024-01-15T11:06:18;2.27;;;1.83;;
54408;SDS011;40315;48.620;9.828;2024-01-15T11:08:48;2.40;;;1.40;;
54408;SDS011;40315;48.620;9.828;2024-01-15T11:11:18;2.43;;;1.23;;
54408;SDS011;40315;48.620;9.828;2024-01-15T11:13:47;2.67;;;1.30;;
54408;SDS011;40315;48.620;9.828;2024-01-15T11:16:21;6.87;;;4.20;;
54408;SDS011;40315;48.620;9.828;2024-01-15T11:19:03;6.00;;;3.17;;
54408;SDS011;40315;48.620;9.828;2024-01-15T11:21:33;14.33;;;8.90;;
54408;SDS011;40315;48.620;9.828;2024-01-15T11:24:09;3.33;;;1.90;;
54408;SDS011;40315;48.620;9.828;2024-01-15T11:26:37;3.83;;;2.93;;
54408;SDS011;40315;48.620;9.828;2024-01-15T11:29:29;5.60;;;3.80;;
54408;SDS011;40315;48.620;9.828;2024-01-15T11:32:08;2.13;;;1.40;;
54408;SDS011;40315;48.620;9.828;2024-01-15T11:34:51;3.97;;;1.90;;
54408;SDS011;40315;48.620;9.828;2024-01-15T11:37:27;1.90;;;1.50;;
54408;SDS011;40315;48.620;9.828;2024-01-15T11:39:55;2.33;;;1.90;;
54408;SDS011;40315;48.620;9.828;2024-01-15T11:42:28;2.10;;;1.50;;
54408;SDS011;40315;48.620;9.828;2024-01-15T11:44:58;2.33;;;1.73;;
54408;SDS011;40315;48.620;9.828;2024-01-15T11:47:46;2.30;;;1.90;;
54408;SDS011;40315;48.620;9.828;2024-01-15T11:50:36;2.80;;;2.00;;
54408;SDS011;40315;48.620;9.828;2024-01-15T11:53:14;2.17;;;1.67;;
54408;SDS011;40315;48.620;9.828;2024-01-15T11:55:44;2.53;;;1.93;;
54408;SDS011;40315;48.620;9.828;2024-01-15T11:58:13;3.17;;;2.00;;
54408;SDS011;40315;48.620;9.828;2024-01-15T12:00:42;3.43;;;2.30;;
54408;SDS011;40315;48.620;9.828;2024-01-15T12:03:12;2.33;;;1.70;;
54408;SDS011;40315;48.620;9.828;2024-01-15T12:05:39;4.87;;;2.90;;
54408;SDS011;40315;48.620;9.828;2024-01-15T12:08:07;3.80;;;2.67;;
54408;SDS011;40315;48.620;9.828;2024-01-15T12:10:36;6.53;;;3.80;;
54408;SDS011;40315;48.620;9.828;2024-01-15T12:13:08;7.70;;;3.63;;
54408;SDS011;40315;48.620;9.828;2024-01-15T12:15:36;8.40;;;4.30;;
54408;SDS011;40315;48.620;9.828;2024-01-15T12:18:06;2.67;;;2.10;;
54408;SDS011;40315;48.620;9.828;2024-01-15T12:20:37;12.30;;;4.00;;
54408;SDS011;40315;48.620;9.828;2024-01-15T12:23:05;6.07;;;2.60;;
54408;SDS011;40315;48.620;9.828;2024-01-15T12:25:33;6.17;;;2.87;;
54408;SDS011;40315;48.620;9.828;2024-01-15T12:28:00;4.30;;;2.37;;
54408;SDS011;40315;48.620;9.828;2024-01-15T12:30:28;6.17;;;3.20;;
54408;SDS011;40315;48.620;9.828;2024-01-15T12:32:56;9.03;;;3.97;;
54408;SDS011;40315;48.620;9.828;2024-01-15T12:35:26;9.23;;;4.13;;
54408;SDS011;40315;48.620;9.828;2024-01-15T12:37:54;7.20;;;3.20;;
54408;SDS011;40315;48.620;9.828;2024-01-15T12:40:22;5.30;;;3.30;;
54408;SDS011;40315;48.620;9.828;2024-01-15T12:42:49;6.83;;;3.13;;
54408;SDS011;40315;48.620;9.828;2024-01-15T12:45:16;5.33;;;3.23;;
54408;SDS011;40315;48.620;9.828;2024-01-15T12:47:44;6.80;;;3.00;;
54408;SDS011;40315;48.620;9.828;2024-01-15T12:50:12;3.90;;;2.47;;
54408;SDS011;40315;48.620;9.828;2024-01-15T12:52:40;4.10;;;2.27;;
54408;SDS011;40315;48.620;9.828;2024-01-15T12:55:09;3.50;;;2.10;;
54408;SDS011;40315;48.620;9.828;2024-01-15T12:57:38;4.60;;;2.80;;
54408;SDS011;40315;48.620;9.828;2024-01-15T13:00:05;5.57;;;2.57;;
54408;SDS011;40315;48.620;9.828;2024-01-15T13:02:39;8.27;;;2.90;;
54408;SDS011;40315;48.620;9.828;2024-01-15T13:05:07;5.30;;;2.20;;
54408;SDS011;40315;48.620;9.828;2024-01-15T13:07:36;2.73;;;2.00;;
54408;SDS011;40315;48.620;9.828;2024-01-15T13:10:03;5.40;;;2.50;;
54408;SDS011;40315;48.620;9.828;2024-01-15T13:12:34;6.37;;;3.53;;
54408;SDS011;40315;48.620;9.828;2024-01-15T13:15:04;8.40;;;3.70;;
54408;SDS011;40315;48.620;9.828;2024-01-15T13:17:33;6.53;;;3.20;;
54408;SDS011;40315;48.620;9.828;2024-01-15T13:20:00;6.70;;;3.50;;
54408;SDS011;40315;48.620;9.828;2024-01-15T13:22:28;6.67;;;3.87;;
54408;SDS011;40315;48.620;9.828;2024-01-15T13:24:57;7.27;;;6.57;;
54408;SDS011;40315;48.620;9.828;2024-01-15T13:27:26;16.70;;;6.10;;
54408;SDS011;40315;48.620;9.828;2024-01-15T13:29:57;5.47;;;2.83;;
54408;SDS011;40315;48.620;9.828;2024-01-15T13:32:27;8.30;;;3.63;;
54408;SDS011;40315;48.620;9.828;2024-01-15T13:34:55;9.63;;;3.97;;
54408;SDS011;40315;48.620;9.828;2024-01-15T13:37:22;13.00;;;4.57;;
54408;SDS011;40315;48.620;9.828;2024-01-15T13:39:52;5.70;;;2.87;;
54408;SDS011;40315;48.620;9.828;2024-01-15T13:42:21;9.37;;;3.90;;
54408;SDS011;40315;48.620;9.828;2024-01-15T13:44:48;14.33;;;5.67;;
54408;SDS011;40315;48.620;9.828;2024-01-15T13:47:19;2.73;;;2.40;;
54408;SDS011;40315;48.620;9.828;2024-01-15T13:49:46;6.90;;;3.40;;
54408;SDS011;40315;48.620;9.828;2024-01-15T13:52:13;5.63;;;2.97;;
54408;SDS011;40315;48.620;9.828;2024-01-15T13:54:42;3.83;;;2.53;;
54408;SDS011;40315;48.620;9.828;2024-01-15T13:57:09;3.83;;;2.33;;
54408;SDS011;40315;48.620;9.828;2024-01-15T13:59:39;5.07;;;2.70;;
54408;SDS011;40315;48.620;9.828;2024-01-15T14:02:05;5.67;;;2.73;;
54408;SDS011;40315;48.620;9.828;2024-01-15T14:04:34;4.47;;;2.40;;
54408;SDS011;40315;48.620;9.828;2024-01-15T14:07:01;6.23;;;2.53;;
54408;SDS011;40315;48.620;9.828;2024-01-15T14:09:28;3.27;;;2.20;;
54408;SDS011;40315;48.620;9.828;2024-01-15T14:11:59;5.93;;;2.90;;
54408;SDS011;40315;48.620;9.828;2024-01-15T14:14:26;5.17;;;2.60;;
54408;SDS011;40315;48.620;9.828;2024-01-15T14:16:55;8.20;;;3.57;;
54408;SDS011;40315;48.620;9.828;2024-01-15T14:19:22;8.13;;;3.77;;
54408;SDS011;40315;48.620;9.828;2024-01-15T14:21:50;6.50;;;2.30;;
54408;SDS011;40315;48.620;9.828;2024-01-15T14:24:17;6.20;;;2.97;;
54408;SDS011;40315;48.620;9.828;2024-01-15T14:26:44;7.30;;;2.93;;
54408;SDS011;40315;48.620;9.828;2024-01-15T14:29:11;5.67;;;2.90;;
54408;SDS011;40315;48.620;9.828;2024-01-15T14:31:38;6.70;;;2.90;;
54408;SDS011;40315;48.620;9.828;2024-01-15T14:34:05;5.80;;;2.70;;
54408;SDS011;40315;48.620;9.828;2024-01-15T14:36:35;6.53;;;3.20;;
54408;SDS011;40315;48.620;9.828;2024-01-15T14:39:03;5.07;;;2.70;;
54408;SDS011;40315;48.620;9.828;2024-01-15T14:41:30;7.07;;;2.97;;
54408;SDS011;40315;48.620;9.828;2024-01-15T14:43:59;5.93;;;3.03;;
54408;SDS011;40315;48.620;9.828;2024-01-15T14:46:26;6.43;;;3.30;;
54408;SDS011;40315;48.620;9.828;2024-01-15T14:48:55;9.20;;;4.13;;
54408;SDS011;40315;48.620;9.828;2024-01-15T14:51:21;6.80;;;3.17;;
54408;SDS011;40315;48.620;9.828;2024-01-15T14:53:49;4.60;;;2.83;;
54408;SDS011;40315;48.620;9.828;2024-01-15T14:56:18;5.87;;;2.80;;
54408;SDS011;40315;48.620;9.828;2024-01-15T14:58:45;5.07;;;3.10;;
54408;SDS011;40315;48.620;9.828;2024-01-15T15:01:12;12.00;;;4.23;;
54408;SDS011;40315;48.620;9.828;2024-01-15T15:03:41;6.83;;;3.83;;
54408;SDS011;40315;48.620;9.828;2024-01-15T15:06:11;6.33;;;4.67;;
54408;SDS011;40315;48.620;9.828;2024-01-15T15:08:41;6.20;;;4.00;;
54408;SDS011;40315;48.620;9.828;2024-01-15T15:11:08;9.30;;;5.60;;
54408;SDS011;40315;48.620;9.828;2024-01-15T15:13:37;7.57;;;4.33;;
54408;SDS011;40315;48.620;9.828;2024-01-15T15:16:05;11.07;;;5.90;;
54408;SDS011;40315;48.620;9.828;2024-01-15T15:18:32;6.53;;;3.73;;
54408;SDS011;40315;48.620;9.828;2024-01-15T15:20:59;5.80;;;3.07;;
54408;SDS011;40315;48.620;9.828;2024-01-15T15:23:26;11.70;;;8.10;;
54408;SDS011;40315;48.620;9.828;2024-01-15T15:25:53;5.23;;;3.53;;
54408;SDS011;40315;48.620;9.828;2024-01-15T15:28:20;5.17;;;3.63;;
54408;SDS011;40315;48.620;9.828;2024-01-15T15:30:48;4.57;;;3.30;;
54408;SDS011;40315;48.620;9.828;2024-01-15T15:33:16;5.57;;;3.50;;
54408;SDS011;40315;48.620;9.828;2024-01-15T15:35:46;4.47;;;3.10;;
54408;SDS011;40315;48.620;9.828;2024-01-15T15:38:16;9.03;;;4.23;;
54408;SDS011;40315;48.620;9.828;2024-01-15T15:40:43;5.83;;;3.37;;
54408;SDS011;40315;48.620;9.828;2024-01-15T15:43:10;7.70;;;3.80;;
54408;SDS011;40315;48.620;9.828;2024-01-15T15:45:39;6.00;;;4.37;;
54408;SDS011;40315;48.620;9.828;2024-01-15T15:48:07;5.23;;;4.00;;
54408;SDS011;40315;48.620;9.828;2024-01-15T15:50:34;4.60;;;3.40;;
54408;SDS011;40315;48.620;9.828;2024-01-15T15:53:01;5.67;;;4.00;;
54408;SDS011;40315;48.620;9.828;2024-01-15T15:55:28;6.67;;;4.10;;
54408;SDS011;40315;48.620;9.828;2024-01-15T15:57:55;5.67;;;3.87;;
54408;SDS011;40315;48.620;9.828;2024-01-15T16:00:22;5.67;;;4.00;;
54408;SDS011;40315;48.620;9.828;2024-01-15T16:02:52;6.60;;;4.03;;
54408;SDS011;40315;48.620;9.828;2024-01-15T16:05:23;7.53;;;3.67;;
54408;SDS011;40315;48.620;9.828;2024-01-15T16:07:52;10.30;;;4.23;;
54408;SDS011;40315;48.620;9.828;2024-01-15T16:10:19;7.93;;;4.57;;
54408;SDS011;40315;48.620;9.828;2024-01-15T16:12:46;7.23;;;4.37;;
54408;SDS011;40315;48.620;9.828;2024-01-15T16:15:16;5.40;;;4.00;;
54408;SDS011;40315;48.620;9.828;2024-01-15T16:17:45;6.93;;;4.27;;
54408;SDS011;40315;48.620;9.828;2024-01-15T16:20:12;6.60;;;4.40;;
54408;SDS011;40315;48.620;9.828;2024-01-15T16:22:44;6.70;;;3.90;;
54408;SDS011;40315;48.620;9.828;2024-01-15T16:25:11;7.23;;;4.30;;
54408;SDS011;40315;48.620;9.828;2024-01-15T16:27:38;7.07;;;3.87;;
54408;SDS011;40315;48.620;9.828;2024-01-15T16:30:07;7.40;;;4.03;;
54408;SDS011;40315;48.620;9.828;2024-01-15T16:32:34;9.70;;;5.90;;
54408;SDS011;40315;48.620;9.828;2024-01-15T16:35:02;8.40;;;4.80;;
54408;SDS011;40315;48.620;9.828;2024-01-15T16:37:29;7.90;;;5.77;;
54408;SDS011;40315;48.620;9.828;2024-01-15T16:39:58;7.93;;;5.90;;
54408;SDS011;40315;48.620;9.828;2024-01-15T16:42:25;11.30;;;6.27;;
54408;SDS011;40315;48.620;9.828;2024-01-15T16:44:52;8.70;;;5.00;;
54408;SDS011;40315;48.620;9.828;2024-01-15T16:47:19;7.60;;;5.20;;
54408;SDS011;40315;48.620;9.828;2024-01-15T16:49:46;10.07;;;6.93;;
54408;SDS011;40315;48.620;9.828;2024-01-15T16:52:13;7.13;;;4.77;;
54408;SDS011;40315;48.620;9.828;2024-01-15T16:54:43;8.77;;;5.10;;